Santiago De Compostela, Spain

3:19 PM CEST on August 31, 2015 (GMT +0200)
Santiago | | Change Station
CLOSE
Current Station
Airport
Location: Santiago de Compostela,
Elevation: 1204 ft
Nearby Weather Stations

Elev 1204 ft 42.89 °N, 8.41 °W | Updated 19 minutes ago

Light Rain
Light Rain Drizzle
63 °F
Feels Like 63 °F
N
12
Wind Variable Wind from North

Today
High -- | Low -- °F
--% Chance of Precip.
Yesterday
High -- | Low -- °F
Precip. -- in
7:56 AM 9:10 PM
Waning Gibbous, 95% visible
Pressure 30.06 in
Visibility 3.1 miles
Clouds Scattered Clouds 600 ft
Mostly Cloudy 1100 ft
Mostly Cloudy 1600 ft
Dew Point 61 °F
Humidity 94%
Rainfall 0.00 in
Snow Depth Not available.
UV 5 out of 12
Pollen Not available.
Air Quality Not available.
Flu Activity Not available.
METAR LEST 311300Z 35010KT 320V020 5000 -RADZ SCT006 BKN011 BKN016 17/16 Q1018 TEMPO 3000 -DZ BKN007
Pressure 30.06 in
Visibility 3.1 miles
Clouds Scattered Clouds 600 ft
Mostly Cloudy 1100 ft
Mostly Cloudy 1600 ft
Dew Point 61 °F
Humidity 94%
Rainfall 0.00 in
Snow Depth Not available.
UV 5 out of 12
Pollen Not available.
Air Quality Not available.
Flu Activity Not available.
METAR LEST 311300Z 35010KT 320V020 5000 -RADZ SCT006 BKN011 BKN016 17/16 Q1018 TEMPO 3000 -DZ BKN007

10-Day Weather Forecast

×

Almanac

Astronomy

Aug. 31, 2015 Rise Set
Actual Time
Civil Twilight
Nautical Twilight
Astronomical Twilight
Moon
Length of Visible Light
Length of Day
Tomorrow will be .
, % of the Moon is Illuminated

Today's Extremes

Country Highs Country Lows

Community

WunderPhotos

Upload Photos

1,851,226 photos uploaded!

WunderBlogs® & News

Nearby

Air Quality

  Air Quality AQ Index Pollutant
Not available.

Snow Depth

Station Depth Elevation

Earthquake Activity

City Distance Mag. Time & Date
Minimum magnitude displayed is 2.5.

Coastal Water Temperatures

Place Temperature

Stations

Nearby Weather Stations

Station Location Temp. Windchill Dew Point Humidity Wind Precip. Elev Updated Type